Time;durP1;ratioP1;P1;durP2;ratioP2;P2;SDS_P1;SDS_P2;PMS_P1;PMS_P2;Temp;Humidity;BMP_temperature;BMP_pressure;BME280_temperature;BME280_humidity;BME280_pressure;Samples;Min_cycle;Max_cycle;Signal;HPM_P1;HPM_P2
2023/06/30 00:00:25;;;;;;;5.63;2.80;;;21.10;92.40;;;;;;5036918;28;20028;-71
2023/06/30 00:02:51;;;;;;;6.65;2.50;;;21.00;92.40;;;;;;5036475;28;20105;-71
2023/06/30 00:05:18;;;;;;;5.30;2.38;;;21.00;92.50;;;;;;5036862;28;20060;-70
2023/06/30 00:07:44;;;;;;;8.05;2.75;;;21.00;92.40;;;;;;5035359;28;20064;-70
2023/06/30 00:10:10;;;;;;;6.05;2.90;;;21.00;92.40;;;;;;5036628;28;20029;-72
2023/06/30 00:12:36;;;;;;;9.05;2.97;;;21.00;92.30;;;;;;5036644;28;20029;-70
2023/06/30 00:15:02;;;;;;;5.68;2.75;;;20.90;92.30;;;;;;5035325;28;20032;-69
2023/06/30 00:17:28;;;;;;;5.53;2.30;;;20.90;92.10;;;;;;5036250;28;20389;-70
2023/06/30 00:19:58;;;;;;;4.60;2.58;;;20.90;92.10;;;;;;5036431;28;20025;-69
2023/06/30 00:22:24;;;;;;;7.10;2.35;;;20.90;92.10;;;;;;5036456;28;20541;-69
2023/06/30 00:24:54;;;;;;;7.35;2.42;;;20.90;92.00;;;;;;5036493;28;20029;-68
2023/06/30 00:27:20;;;;;;;8.15;2.60;;;20.90;92.00;;;;;;5036495;28;20037;-68
2023/06/30 00:29:46;;;;;;;5.30;2.45;;;20.90;92.10;;;;;;5036028;28;20018;-69
2023/06/30 00:32:11;;;;;;;6.85;2.70;;;20.80;92.00;;;;;;5036539;28;20612;-70
2023/06/30 00:34:37;;;;;;;5.70;2.45;;;20.80;92.10;;;;;;5036098;28;20482;-69
2023/06/30 00:37:03;;;;;;;8.98;2.72;;;20.80;92.00;;;;;;5034929;28;20025;-69
2023/06/30 00:39:28;;;;;;;5.43;2.33;;;20.80;92.10;;;;;;5036124;28;20044;-68
2023/06/30 00:41:54;;;;;;;7.00;2.38;;;20.70;92.10;;;;;;5036010;28;20040;-70
2023/06/30 00:44:19;;;;;;;9.32;3.00;;;20.70;92.20;;;;;;5035674;28;20029;-69
2023/06/30 00:46:45;;;;;;;8.18;2.70;;;20.70;92.10;;;;;;5035955;28;20021;-69
2023/06/30 00:49:11;;;;;;;7.75;2.65;;;20.70;92.20;;;;;;5035897;28;20017;-68
2023/06/30 00:51:37;;;;;;;4.35;2.35;;;20.60;92.10;;;;;;5036026;28;20459;-70
2023/06/30 00:54:02;;;;;;;6.60;2.67;;;20.60;92.30;;;;;;5035905;28;20028;-68
2023/06/30 00:56:28;;;;;;;7.95;2.42;;;20.60;92.20;;;;;;5035725;28;20034;-69
2023/06/30 00:58:54;;;;;;;8.43;2.80;;;20.50;92.20;;;;;;5035476;28;20383;-68
2023/06/30 01:01:31;;;;;;;6.70;2.75;;;20.50;92.30;;;;;;5035913;28;20082;-68
2023/06/30 01:04:35;;;;;;;6.07;2.65;;;20.50;92.20;;;;;;5035517;28;20025;-69
2023/06/30 01:07:25;;;;;;;6.93;2.58;;;20.50;92.30;;;;;;5035740;28;20029;-68
2023/06/30 01:10:02;;;;;;;7.03;2.78;;;20.50;92.20;;;;;;5035386;28;20116;-68
2023/06/30 01:12:28;;;;;;;6.20;2.42;;;20.40;92.10;;;;;;5034511;28;20113;-69
2023/06/30 01:14:55;;;;;;;6.32;2.58;;;20.40;92.20;;;;;;5035129;28;20112;-69
2023/06/30 01:17:24;;;;;;;5.88;2.30;;;20.40;92.20;;;;;;5035706;28;20028;-70
2023/06/30 01:19:53;;;;;;;6.53;2.50;;;20.40;92.20;;;;;;5035330;28;20096;-69
2023/06/30 01:22:21;;;;;;;5.20;1.90;;;20.30;92.10;;;;;;5035362;28;20045;-69
2023/06/30 01:24:49;;;;;;;7.43;2.22;;;20.30;92.00;;;;;;5035192;28;20026;-68
2023/06/30 01:27:15;;;;;;;5.90;2.67;;;20.30;92.00;;;;;;5035380;28;20075;-69
2023/06/30 01:29:43;;;;;;;8.98;2.78;;;20.20;92.00;;;;;;5034930;28;20386;-68
2023/06/30 01:32:09;;;;;;;6.60;2.75;;;20.20;92.00;;;;;;5035154;28;20100;-69
2023/06/30 01:34:35;;;;;;;6.88;2.50;;;20.20;91.90;;;;;;5034036;28;20025;-69
2023/06/30 01:37:00;;;;;;;6.45;2.40;;;20.20;92.10;;;;;;5035100;28;20022;-68
2023/06/30 01:39:26;;;;;;;4.97;2.28;;;20.10;92.00;;;;;;5033760;28;20459;-70
2023/06/30 01:41:53;;;;;;;6.70;2.63;;;20.20;91.90;;;;;;5034906;28;20042;-69
2023/06/30 01:44:19;;;;;;;5.65;2.72;;;20.10;91.90;;;;;;5034719;28;20021;-69
2023/06/30 01:46:45;;;;;;;5.80;2.60;;;20.00;91.90;;;;;;5034823;28;20024;-69
2023/06/30 01:49:12;;;;;;;7.90;2.65;;;20.00;91.90;;;;;;5035026;28;20446;-68
2023/06/30 01:51:38;;;;;;;8.90;3.40;;;20.00;91.80;;;;;;5034802;28;20017;-67
2023/06/30 01:54:03;;;;;;;6.47;2.55;;;20.00;91.80;;;;;;5034742;28;20092;-69
2023/06/30 01:56:29;;;;;;;5.72;2.55;;;20.00;91.80;;;;;;5034646;28;20591;-69
2023/06/30 01:58:54;;;;;;;7.80;2.75;;;20.00;92.00;;;;;;5034393;28;20028;-69
2023/06/30 02:01:20;;;;;;;6.75;3.20;;;20.00;91.80;;;;;;5033451;28;20387;-72
2023/06/30 02:03:47;;;;;;;8.82;2.83;;;20.00;91.90;;;;;;5034632;28;20025;-68
2023/06/30 02:06:13;;;;;;;4.93;2.58;;;19.90;91.70;;;;;;5034503;28;20080;-69
2023/06/30 02:08:38;;;;;;;7.80;2.90;;;19.90;91.70;;;;;;5034594;28;20018;-69
2023/06/30 02:11:04;;;;;;;7.28;2.67;;;19.90;91.60;;;;;;5034631;28;20116;-69
2023/06/30 02:13:30;;;;;;;8.50;2.28;;;19.90;91.70;;;;;;5034278;28;20367;-68
2023/06/30 02:15:55;;;;;;;5.45;2.72;;;19.80;91.80;;;;;;5033586;28;20394;-70
2023/06/30 02:18:22;;;;;;;5.45;2.00;;;19.80;91.60;;;;;;5034459;28;20025;-69
2023/06/30 02:20:47;;;;;;;9.35;2.70;;;19.80;91.60;;;;;;5034255;28;20026;-70
2023/06/30 02:23:13;;;;;;;5.57;2.33;;;19.70;91.50;;;;;;5033167;28;20148;-68
2023/06/30 02:25:39;;;;;;;5.47;2.70;;;19.70;91.50;;;;;;5034214;28;20509;-69
2023/06/30 02:28:05;;;;;;;7.35;2.70;;;19.70;91.60;;;;;;5033771;28;20020;-71
2023/06/30 02:30:30;;;;;;;6.30;2.75;;;19.60;91.70;;;;;;5034222;28;20112;-70
2023/06/30 02:32:56;;;;;;;6.13;2.30;;;19.60;91.60;;;;;;5034098;28;20509;-69
2023/06/30 02:35:22;;;;;;;7.20;2.53;;;19.60;91.60;;;;;;5033958;28;20041;-69
2023/06/30 02:37:47;;;;;;;4.55;2.25;;;19.60;91.80;;;;;;5033893;28;20017;-72
2023/06/30 02:40:13;;;;;;;5.00;2.80;;;19.60;91.60;;;;;;5033993;28;20113;-72
2023/06/30 02:42:38;;;;;;;4.75;2.60;;;19.60;91.50;;;;;;5032318;28;20036;-69
2023/06/30 02:45:05;;;;;;;6.25;2.42;;;19.50;91.60;;;;;;5033988;28;20079;-69
2023/06/30 02:47:30;;;;;;;6.85;2.60;;;19.50;91.60;;;;;;5033804;28;20037;-70
2023/06/30 02:49:56;;;;;;;5.22;2.85;;;19.50;91.60;;;;;;5033749;28;20023;-69
2023/06/30 02:52:21;;;;;;;5.90;2.50;;;19.50;91.60;;;;;;5033640;28;20478;-69
2023/06/30 02:54:47;;;;;;;6.13;2.55;;;19.40;91.60;;;;;;5033242;28;20356;-71
2023/06/30 02:57:13;;;;;;;7.72;2.47;;;19.40;91.60;;;;;;5033487;28;20057;-69
2023/06/30 02:59:38;;;;;;;7.60;2.58;;;19.40;91.60;;;;;;5033736;28;20022;-69
2023/06/30 03:02:04;;;;;;;6.88;2.50;;;19.40;91.70;;;;;;5032085;28;20517;-69
2023/06/30 03:04:30;;;;;;;5.60;2.25;;;19.30;91.70;;;;;;5033744;28;20505;-71
2023/06/30 03:06:55;;;;;;;7.38;2.58;;;19.30;91.60;;;;;;5033352;28;20386;-69
2023/06/30 03:09:21;;;;;;;5.20;2.40;;;19.30;91.70;;;;;;5033225;28;20159;-70
2023/06/30 03:11:46;;;;;;;6.75;2.90;;;19.30;91.80;;;;;;5033219;28;20053;-71
2023/06/30 03:14:12;;;;;;;6.40;3.00;;;19.30;91.80;;;;;;5033540;28;20033;-68
2023/06/30 03:16:38;;;;;;;5.43;2.30;;;19.20;91.80;;;;;;5033342;28;20538;-69
2023/06/30 03:19:03;;;;;;;5.00;2.58;;;19.20;91.80;;;;;;5033415;28;20017;-68
2023/06/30 03:21:29;;;;;;;7.57;2.65;;;19.20;91.70;;;;;;5033255;28;20052;-69
2023/06/30 03:23:54;;;;;;;4.63;2.88;;;19.20;91.70;;;;;;5032891;28;20098;-69
2023/06/30 03:26:20;;;;;;;8.40;2.85;;;19.10;91.80;;;;;;5033187;28;20033;-68
2023/06/30 03:28:45;;;;;;;6.18;2.85;;;19.20;91.80;;;;;;5031230;28;20060;-68
2023/06/30 03:31:11;;;;;;;4.88;2.88;;;19.10;91.80;;;;;;5033241;28;20034;-70
2023/06/30 03:33:36;;;;;;;8.70;2.72;;;19.10;91.80;;;;;;5033162;28;20088;-69
2023/06/30 03:36:02;;;;;;;5.20;2.80;;;19.10;91.80;;;;;;5032806;28;20044;-72
2023/06/30 03:38:28;;;;;;;8.10;3.10;;;19.10;92.10;;;;;;5032948;28;20025;-69
2023/06/30 03:40:53;;;;;;;5.40;2.65;;;19.00;91.80;;;;;;5033057;28;20045;-72
2023/06/30 03:43:22;;;;;;;5.68;2.88;;;19.00;91.70;;;;;;5033141;28;20022;-72
2023/06/30 03:45:48;;;;;;;4.68;2.70;;;19.00;91.80;;;;;;5033100;28;20400;-69
2023/06/30 03:48:13;;;;;;;8.07;3.40;;;19.00;91.90;;;;;;5033057;28;20474;-68
2023/06/30 03:50:41;;;;;;;7.22;2.88;;;19.00;91.90;;;;;;5033098;28;20025;-69
2023/06/30 03:53:07;;;;;;;5.03;2.53;;;18.90;92.00;;;;;;5032677;28;20096;-69
2023/06/30 03:55:32;;;;;;;5.85;3.30;;;19.00;92.00;;;;;;5033012;28;20179;-69
2023/06/30 03:57:58;;;;;;;7.50;2.70;;;19.00;91.90;;;;;;5031449;28;20076;-69
2023/06/30 04:00:23;;;;;;;5.65;2.70;;;19.00;91.80;;;;;;5030654;28;20030;-71
2023/06/30 04:02:49;;;;;;;7.68;3.17;;;18.90;91.90;;;;;;5031623;28;20021;-69
2023/06/30 04:05:14;;;;;;;6.80;3.75;;;18.90;91.80;;;;;;5028883;28;20030;-69
2023/06/30 04:07:40;;;;;;;7.55;3.35;;;18.90;91.90;;;;;;5032418;28;20475;-68
2023/06/30 04:10:06;;;;;;;6.15;3.13;;;18.90;92.00;;;;;;5032867;28;20026;-69
2023/06/30 04:12:31;;;;;;;9.05;3.72;;;18.90;91.90;;;;;;5032669;28;20038;-67
2023/06/30 04:14:57;;;;;;;9.70;3.58;;;18.90;91.90;;;;;;5031415;28;20027;-68
2023/06/30 04:17:23;;;;;;;7.25;2.80;;;18.90;91.80;;;;;;5024618;28;20029;-67
2023/06/30 04:19:49;;;;;;;7.60;3.38;;;18.90;91.90;;;;;;5028916;28;20045;-71
2023/06/30 04:22:15;;;;;;;5.10;3.00;;;18.90;91.90;;;;;;5024566;28;20557;-71
2023/06/30 04:24:40;;;;;;;6.68;3.13;;;18.90;92.00;;;;;;5031285;28;20417;-69
2023/06/30 04:27:06;;;;;;;8.32;3.17;;;18.90;92.10;;;;;;5026287;28;20033;-68
2023/06/30 04:29:31;;;;;;;6.40;3.00;;;18.90;92.20;;;;;;5014983;28;20083;-69
2023/06/30 04:31:57;;;;;;;6.25;3.17;;;18.80;92.10;;;;;;5013127;28;20471;-68
2023/06/30 04:34:22;;;;;;;24.70;5.47;;;18.90;92.10;;;;;;5012700;28;20498;-69
2023/06/30 04:36:49;;;;;;;13.05;7.03;;;18.90;92.20;;;;;;5011272;28;20030;-70
2023/06/30 04:39:15;;;;;;;5.13;3.35;;;18.80;92.10;;;;;;5013134;28;20028;-69
2023/06/30 04:41:41;;;;;;;5.50;2.83;;;18.80;92.10;;;;;;5023348;28;20049;-70
2023/06/30 04:44:06;;;;;;;5.25;2.67;;;18.80;92.20;;;;;;5035762;28;20108;-70
2023/06/30 04:46:32;;;;;;;4.57;2.58;;;18.80;92.30;;;;;;5036032;28;20459;-69
2023/06/30 04:48:58;;;;;;;7.28;2.92;;;18.80;92.50;;;;;;5033928;28;20096;-68
2023/06/30 04:51:24;;;;;;;4.32;2.35;;;18.80;92.40;;;;;;5028163;28;20033;-72
2023/06/30 04:53:50;;;;;;;4.53;2.28;;;18.80;92.50;;;;;;5037764;28;20029;-68
2023/06/30 04:56:16;;;;;;;6.57;2.95;;;18.80;92.50;;;;;;5055498;28;20466;-71
2023/06/30 04:58:41;;;;;;;5.50;2.45;;;18.80;92.50;;;;;;5055429;28;20021;-69
2023/06/30 05:01:07;;;;;;;7.90;2.88;;;18.80;92.60;;;;;;5047069;28;20454;-70
2023/06/30 05:03:33;;;;;;;5.80;2.78;;;18.80;92.40;;;;;;5035746;28;20029;-70
2023/06/30 05:05:59;;;;;;;5.82;3.00;;;18.90;92.50;;;;;;5034945;28;20026;-71
2023/06/30 05:08:24;;;;;;;6.70;3.13;;;18.90;92.50;;;;;;5035023;28;20060;-69
2023/06/30 05:10:50;;;;;;;9.50;3.72;;;18.90;92.50;;;;;;5035107;28;20053;-73
2023/06/30 05:13:15;;;;;;;7.50;3.40;;;19.00;92.60;;;;;;5021509;28;20044;-70
2023/06/30 05:15:41;;;;;;;7.43;3.38;;;19.00;92.60;;;;;;5016793;28;20112;-69
2023/06/30 05:18:07;;;;;;;5.32;3.67;;;18.90;92.60;;;;;;5023978;28;20060;-68
2023/06/30 05:20:33;;;;;;;8.57;3.92;;;18.90;92.60;;;;;;5035110;28;20025;-70
2023/06/30 05:23:00;;;;;;;9.48;4.15;;;19.00;92.70;;;;;;5021321;28;20058;-69
2023/06/30 05:25:26;;;;;;;10.90;4.95;;;19.00;92.60;;;;;;5025524;28;20021;-70
2023/06/30 05:27:51;;;;;;;11.25;4.20;;;19.00;92.70;;;;;;5016600;28;20032;-69
2023/06/30 05:30:18;;;;;;;14.15;4.55;;;19.00;92.60;;;;;;5015290;28;20026;-71
2023/06/30 05:32:44;;;;;;;12.02;4.72;;;19.00;92.60;;;;;;5022112;28;20061;-70
2023/06/30 05:35:10;;;;;;;13.95;4.90;;;19.10;92.50;;;;;;5032953;28;20065;-69
2023/06/30 05:37:36;;;;;;;8.32;5.72;;;19.10;92.60;;;;;;5023476;28;20033;-70
2023/06/30 05:40:01;;;;;;;12.07;5.68;;;19.10;92.70;;;;;;5027100;28;20022;-70
2023/06/30 05:42:27;;;;;;;12.23;5.10;;;19.20;93.10;;;;;;5019754;28;20052;-70
2023/06/30 05:44:52;;;;;;;11.35;5.13;;;19.30;93.00;;;;;;5023163;28;20032;-70
2023/06/30 05:47:18;;;;;;;8.73;5.85;;;19.30;93.00;;;;;;5034518;28;20499;-69
2023/06/30 05:49:44;;;;;;;14.20;7.30;;;19.40;93.00;;;;;;5026888;28;20018;-70
2023/06/30 05:52:10;;;;;;;9.13;6.60;;;19.50;93.00;;;;;;5030701;28;20075;-69
2023/06/30 05:54:35;;;;;;;12.38;7.15;;;19.60;92.80;;;;;;5025333;28;20147;-69
2023/06/30 05:57:01;;;;;;;10.73;7.20;;;19.70;92.80;;;;;;5022975;28;20030;-70
2023/06/30 05:59:28;;;;;;;10.50;5.93;;;19.70;92.70;;;;;;5019006;28;20033;-71
2023/06/30 06:01:54;;;;;;;10.05;5.93;;;19.80;92.50;;;;;;5018922;28;20040;-68
2023/06/30 06:04:20;;;;;;;23.00;6.80;;;19.90;92.30;;;;;;5023949;28;20109;-66
2023/06/30 06:06:46;;;;;;;8.85;4.93;;;19.90;92.40;;;;;;5027254;28;20137;-67
2023/06/30 06:09:11;;;;;;;8.52;5.05;;;20.00;92.00;;;;;;5029721;28;20034;-67
2023/06/30 06:11:37;;;;;;;7.50;3.22;;;20.10;92.00;;;;;;5025209;28;20029;-66
2023/06/30 06:14:03;;;;;;;8.75;3.85;;;20.10;92.00;;;;;;5025132;28;20060;-66
2023/06/30 06:16:28;;;;;;;11.00;4.80;;;20.20;92.20;;;;;;5025652;28;20107;-66
2023/06/30 06:18:54;;;;;;;7.63;4.00;;;20.30;92.00;;;;;;5026248;28;20029;-67
2023/06/30 06:21:24;;;;;;;8.10;3.35;;;20.40;91.70;;;;;;5021158;28;20096;-67
2023/06/30 06:23:50;;;;;;;7.20;3.05;;;20.50;91.60;;;;;;5026963;28;20029;-66
2023/06/30 06:26:16;;;;;;;7.55;3.47;;;20.50;91.90;;;;;;5019349;28;20041;-68
2023/06/30 06:28:42;;;;;;;12.88;3.15;;;20.60;91.50;;;;;;5025297;28;20022;-68
2023/06/30 06:31:09;;;;;;;4.07;2.53;;;20.70;91.50;;;;;;5030089;28;20113;-69
2023/06/30 06:33:35;;;;;;;6.05;2.80;;;20.70;91.30;;;;;;5026140;28;20437;-69
2023/06/30 06:36:01;;;;;;;4.95;2.53;;;20.80;91.70;;;;;;5025307;28;20120;-67
2023/06/30 06:38:26;;;;;;;6.70;2.58;;;20.90;91.20;;;;;;5028446;28;20099;-68
2023/06/30 06:40:52;;;;;;;6.00;2.10;;;21.00;91.10;;;;;;5024609;28;20036;-70
2023/06/30 06:43:17;;;;;;;5.90;2.28;;;21.00;91.30;;;;;;5025497;28;20041;-69
2023/06/30 06:45:44;;;;;;;6.47;2.75;;;21.10;90.90;;;;;;5031504;28;20406;-68
2023/06/30 06:48:27;;;;;;;6.65;3.20;;;21.20;91.00;;;;;;5035508;28;20123;-67
2023/06/30 06:51:01;;;;;;;8.48;2.78;;;21.20;90.90;;;;;;5025519;28;20029;-70
2023/06/30 06:53:28;;;;;;;4.72;1.70;;;21.20;91.10;;;;;;5044882;28;20017;-68
2023/06/30 06:55:55;;;;;;;5.70;2.08;;;21.20;91.10;;;;;;5022185;28;20749;-69
2023/06/30 06:58:22;;;;;;;6.65;2.55;;;21.40;91.20;;;;;;5026604;28;20022;-72
2023/06/30 07:00:49;;;;;;;7.82;2.38;;;21.40;91.30;;;;;;5028185;28;20033;-72
2023/06/30 07:03:16;;;;;;;6.97;2.70;;;21.50;91.00;;;;;;5030247;28;20067;-69
2023/06/30 07:05:43;;;;;;;5.20;2.47;;;21.50;90.60;;;;;;5039587;28;20364;-68
2023/06/30 07:08:10;;;;;;;9.00;2.05;;;21.60;91.00;;;;;;5030442;28;20025;-71
2023/06/30 07:10:36;;;;;;;6.07;2.80;;;21.60;91.00;;;;;;5029991;28;20100;-69
2023/06/30 07:13:02;;;;;;;7.57;3.00;;;21.60;90.80;;;;;;5025011;28;20116;-68
2023/06/30 07:15:28;;;;;;;7.38;2.30;;;21.70;90.50;;;;;;5029513;28;20037;-68
2023/06/30 07:17:54;;;;;;;5.13;2.10;;;21.80;90.10;;;;;;5024826;28;20082;-67
2023/06/30 07:20:20;;;;;;;6.05;2.55;;;21.80;90.00;;;;;;5023193;28;20475;-70
2023/06/30 07:22:46;;;;;;;4.20;1.83;;;21.80;89.60;;;;;;5030142;28;20033;-68
2023/06/30 07:25:11;;;;;;;5.75;1.70;;;21.90;90.00;;;;;;5028933;28;20044;-67
2023/06/30 07:27:38;;;;;;;7.00;2.00;;;21.90;89.80;;;;;;5013316;28;20026;-68
2023/06/30 07:30:05;;;;;;;3.88;1.60;;;22.00;88.40;;;;;;5014166;28;20387;-68
2023/06/30 07:32:33;;;;;;;4.55;1.98;;;22.00;88.00;;;;;;5012498;28;20025;-67
2023/06/30 07:35:01;;;;;;;4.47;1.52;;;22.10;87.00;;;;;;5018260;28;20116;-68
2023/06/30 07:37:27;;;;;;;4.57;1.45;;;22.10;87.30;;;;;;5025899;28;20047;-68
2023/06/30 07:39:52;;;;;;;4.95;1.00;;;22.20;86.40;;;;;;5025974;28;20475;-67
2023/06/30 07:42:18;;;;;;;4.65;1.50;;;22.20;86.70;;;;;;5022674;28;20030;-67
2023/06/30 07:44:44;;;;;;;5.07;2.17;;;22.20;85.10;;;;;;5012817;28;20022;-66
2023/06/30 07:47:10;;;;;;;4.72;1.60;;;22.30;85.10;;;;;;5018206;28;20029;-68
2023/06/30 07:49:36;;;;;;;5.78;1.65;;;22.40;85.50;;;;;;5031755;28;20068;-70
2023/06/30 07:52:01;;;;;;;2.95;1.30;;;22.40;85.60;;;;;;5031307;28;20037;-71
2023/06/30 07:54:27;;;;;;;4.65;1.50;;;22.40;85.60;;;;;;5021143;28;20475;-67
2023/06/30 07:56:52;;;;;;;4.20;1.48;;;22.40;85.50;;;;;;5012627;28;20541;-67
2023/06/30 07:59:18;;;;;;;4.70;1.38;;;22.40;85.80;;;;;;5030900;28;20053;-67
2023/06/30 08:01:44;;;;;;;4.95;1.52;;;22.50;85.10;;;;;;5032432;28;20466;-69
2023/06/30 08:04:11;;;;;;;6.07;1.25;;;22.50;85.20;;;;;;5032718;28;20032;-67
2023/06/30 08:06:36;;;;;;;3.88;1.15;;;22.50;85.20;;;;;;5032779;28;20029;-67
2023/06/30 08:09:02;;;;;;;3.38;1.02;;;22.60;85.20;;;;;;5026361;28;20096;-67
2023/06/30 08:11:27;;;;;;;2.80;0.98;;;22.60;84.50;;;;;;5030684;28;20025;-68
2023/06/30 08:13:53;;;;;;;2.53;0.98;;;22.70;84.00;;;;;;5024075;28;20097;-68
2023/06/30 08:16:19;;;;;;;2.78;0.60;;;22.70;84.20;;;;;;5035176;28;20048;-68
2023/06/30 08:18:44;;;;;;;2.33;0.60;;;22.70;84.20;;;;;;5036299;28;20077;-67
2023/06/30 08:21:10;;;;;;;1.98;0.80;;;22.70;84.10;;;;;;5034354;28;20025;-67
2023/06/30 08:23:35;;;;;;;3.97;0.90;;;22.70;84.10;;;;;;5027259;28;20143;-66
2023/06/30 08:26:01;;;;;;;4.05;0.95;;;22.80;84.30;;;;;;5022221;28;20061;-66
2023/06/30 08:28:27;;;;;;;2.60;0.80;;;22.80;83.80;;;;;;5015689;28;20030;-68
2023/06/30 08:30:53;;;;;;;1.83;1.08;;;22.80;83.40;;;;;;5022736;28;20479;-66
2023/06/30 08:33:24;;;;;;;3.63;0.90;;;22.90;83.40;;;;;;5032813;28;20467;-67
2023/06/30 08:35:50;;;;;;;3.30;0.75;;;22.90;83.10;;;;;;5032908;28;20072;-69
2023/06/30 08:38:15;;;;;;;2.10;0.95;;;22.90;82.90;;;;;;5041356;28;20061;-71
2023/06/30 08:40:41;;;;;;;5.85;1.20;;;23.00;82.10;;;;;;5035149;28;20041;-69
2023/06/30 08:43:13;;;;;;;4.13;1.38;;;23.00;82.70;;;;;;5020991;28;20119;-67
2023/06/30 08:45:48;;;;;;;4.95;1.23;;;23.10;82.50;;;;;;5024623;28;20017;-69
2023/06/30 08:48:18;;;;;;;7.80;1.40;;;23.10;81.90;;;;;;5023409;28;20091;-67
2023/06/30 08:50:44;;;;;;;3.97;1.20;;;23.10;82.30;;;;;;5032944;28;20621;-67
2023/06/30 08:53:10;;;;;;;2.85;0.68;;;23.20;82.80;;;;;;5034852;28;20032;-68
2023/06/30 08:55:36;;;;;;;2.22;1.00;;;23.20;82.40;;;;;;5032752;28;20029;-67
2023/06/30 08:58:02;;;;;;;3.50;1.20;;;23.20;81.10;;;;;;5026264;28;20025;-66
2023/06/30 09:00:28;;;;;;;3.25;1.00;;;23.30;80.00;;;;;;5034379;28;20076;-67
2023/06/30 09:02:56;;;;;;;1.95;0.88;;;23.30;81.60;;;;;;5019618;28;20026;-68
2023/06/30 09:05:25;;;;;;;2.30;0.80;;;23.30;81.90;;;;;;5032742;28;20104;-67
2023/06/30 09:07:56;;;;;;;3.83;0.80;;;23.30;82.10;;;;;;5030909;28;20119;-67
2023/06/30 09:10:25;;;;;;;3.72;1.10;;;23.30;82.10;;;;;;5014792;28;20025;-67
2023/06/30 09:12:54;;;;;;;3.20;0.95;;;23.30;81.10;;;;;;5013645;28;20030;-67
2023/06/30 09:15:20;;;;;;;4.03;1.02;;;23.40;81.70;;;;;;5013446;28;20476;-69
2023/06/30 09:17:46;;;;;;;2.53;0.60;;;23.40;81.90;;;;;;5015455;28;20095;-66
2023/06/30 09:20:13;;;;;;;3.05;1.05;;;23.40;81.70;;;;;;5015325;28;20450;-67
2023/06/30 09:22:41;;;;;;;2.35;0.73;;;23.40;81.60;;;;;;5034166;28;20112;-67
2023/06/30 09:25:27;;;;;;;3.70;1.10;;;23.40;81.60;;;;;;5034338;28;20025;-69
2023/06/30 09:27:54;;;;;;;2.20;0.90;;;23.50;81.40;;;;;;5033006;28;20025;-69
2023/06/30 09:30:44;;;;;;;5.10;0.75;;;23.50;81.70;;;;;;5033096;28;20474;-68
2023/06/30 09:33:13;;;;;;;4.38;0.98;;;23.50;81.80;;;;;;5030327;28;20025;-66
2023/06/30 09:35:39;;;;;;;3.85;0.90;;;23.50;81.10;;;;;;5026479;28;20033;-66
2023/06/30 09:38:19;;;;;;;4.60;0.80;;;23.60;81.90;;;;;;5033854;28;20096;-66
2023/06/30 09:40:49;;;;;;;3.38;0.98;;;23.60;81.40;;;;;;5034589;28;20060;-67
2023/06/30 09:43:20;;;;;;;1.90;0.63;;;23.70;81.10;;;;;;5024056;28;20030;-67
2023/06/30 09:45:54;;;;;;;3.38;0.73;;;23.60;81.40;;;;;;5018524;28;20112;-67
2023/06/30 09:48:20;;;;;;;2.70;0.77;;;23.70;81.60;;;;;;5028439;28;20409;-66
2023/06/30 09:50:45;;;;;;;3.38;0.73;;;23.70;81.60;;;;;;5015128;28;20076;-66
2023/06/30 09:53:11;;;;;;;2.30;0.70;;;23.70;80.50;;;;;;5019401;28;20097;-67
2023/06/30 09:55:50;;;;;;;3.97;0.80;;;23.80;81.30;;;;;;5015820;28;20034;-66
2023/06/30 09:58:20;;;;;;;3.85;0.50;;;23.80;80.70;;;;;;5020943;28;20501;-67
2023/06/30 10:00:47;;;;;;;4.07;0.47;;;23.80;81.00;;;;;;5030741;28;20021;-66
2023/06/30 10:03:16;;;;;;;3.28;0.80;;;23.80;81.30;;;;;;5020166;28;20084;-67
2023/06/30 10:05:44;;;;;;;3.45;1.05;;;23.80;80.90;;;;;;5014551;28;20383;-67
2023/06/30 10:08:11;;;;;;;2.00;0.77;;;23.80;80.20;;;;;;5014508;28;20036;-67
2023/06/30 10:10:37;;;;;;;2.13;0.70;;;23.90;80.70;;;;;;5017303;28;20033;-71
2023/06/30 10:13:03;;;;;;;2.85;0.68;;;23.80;80.70;;;;;;5026019;28;20072;-67
2023/06/30 10:15:30;;;;;;;1.70;0.55;;;23.80;80.30;;;;;;5027914;28;20386;-66
2023/06/30 10:17:58;;;;;;;2.65;0.77;;;23.90;80.70;;;;;;5015021;28;20022;-68
2023/06/30 10:20:24;;;;;;;5.00;0.75;;;23.90;80.00;;;;;;5026525;28;20029;-70
2023/06/30 10:22:52;;;;;;;2.40;0.70;;;23.90;79.90;;;;;;5018412;28;20104;-67
2023/06/30 10:25:20;;;;;;;2.35;0.80;;;24.00;80.40;;;;;;5030132;28;20037;-67
2023/06/30 10:27:47;;;;;;;3.60;1.05;;;24.00;80.10;;;;;;5032445;28;20021;-67
2023/06/30 10:30:14;;;;;;;4.43;1.05;;;24.00;79.30;;;;;;5027781;28;20030;-68
2023/06/30 10:32:39;;;;;;;2.88;0.80;;;24.00;78.10;;;;;;5021623;28;20033;-68
2023/06/30 10:35:08;;;;;;;4.10;0.60;;;24.00;78.60;;;;;;5024170;28;20032;-67
2023/06/30 10:37:34;;;;;;;3.72;0.95;;;24.00;78.10;;;;;;5015802;28;20034;-67
2023/06/30 10:40:00;;;;;;;4.95;0.80;;;24.00;77.80;;;;;;5022250;28;20034;-67
2023/06/30 10:42:26;;;;;;;4.15;1.02;;;24.00;77.60;;;;;;5032495;28;20026;-67
2023/06/30 10:44:59;;;;;;;2.95;0.82;;;24.00;77.60;;;;;;5017678;28;20022;-69
2023/06/30 10:47:27;;;;;;;;;;;24.00;77.60;;;;;;5013819;28;20041;-69
2023/06/30 10:49:54;;;;;;;2.80;1.27;;;24.00;77.50;;;;;;5019036;28;20267;-67
2023/06/30 10:52:31;;;;;;;3.60;1.02;;;24.00;77.10;;;;;;5025834;28;20025;-67
2023/06/30 10:55:06;;;;;;;3.17;0.70;;;24.00;77.20;;;;;;5032013;28;20032;-67
2023/06/30 10:57:36;;;;;;;3.63;0.95;;;24.00;77.40;;;;;;5021516;28;20477;-66
2023/06/30 11:00:13;;;;;;;2.33;0.80;;;24.00;77.20;;;;;;5029217;28;20025;-67
2023/06/30 11:02:58;;;;;;;4.43;1.10;;;24.00;77.40;;;;;;5029833;28;20041;-66
2023/06/30 11:05:29;;;;;;;2.58;0.75;;;24.00;77.70;;;;;;5013276;28;20498;-65
2023/06/30 11:08:09;;;;;;;2.80;1.05;;;24.10;77.60;;;;;;5012715;28;20054;-65
2023/06/30 11:10:43;;;;;;;2.28;0.70;;;24.10;76.90;;;;;;5034777;28;20021;-65
2023/06/30 11:13:10;;;;;;;2.10;0.70;;;24.10;77.10;;;;;;5052890;28;20036;-67
2023/06/30 11:15:40;;;;;;;5.13;1.40;;;24.10;77.00;;;;;;5046593;28;20355;-70
2023/06/30 11:18:14;;;;;;;2.25;0.88;;;24.10;77.00;;;;;;5028369;28;20022;-70
2023/06/30 11:21:03;;;;;;;8.05;1.10;;;24.20;77.00;;;;;;5023735;28;20522;-69
2023/06/30 11:23:38;;;;;;;5.40;0.73;;;24.20;76.70;;;;;;5025731;28;20462;-69
2023/06/30 11:26:18;;;;;;;2.42;0.80;;;24.30;74.00;;;;;;5017700;28;20030;-68
2023/06/30 11:28:49;;;;;;;6.50;1.10;;;24.30;73.60;;;;;;5025587;28;20166;-68
2023/06/30 11:31:16;;;;;;;5.82;1.33;;;24.20;71.80;;;;;;5030854;28;20026;-69
2023/06/30 11:33:42;;;;;;;4.07;1.13;;;24.30;71.40;;;;;;5033112;28;20478;-69
2023/06/30 11:36:12;;;;;;;5.75;1.30;;;24.20;71.30;;;;;;5016776;28;20034;-69
2023/06/30 11:38:49;;;;;;;3.88;1.45;;;24.30;71.50;;;;;;5019567;28;20105;-69
2023/06/30 11:41:19;;;;;;;4.45;1.20;;;24.30;71.50;;;;;;5026195;28;20030;-70
2023/06/30 11:43:53;;;;;;;3.25;0.98;;;24.30;72.10;;;;;;5020837;28;20037;-71
2023/06/30 11:46:19;;;;;;;7.55;1.95;;;24.30;72.10;;;;;;5024845;28;20021;-71
2023/06/30 11:48:46;;;;;;;3.38;0.90;;;24.20;72.00;;;;;;5031612;28;20028;-72
2023/06/30 11:51:12;;;;;;;7.82;1.33;;;24.30;72.50;;;;;;5036144;28;20463;-72
2023/06/30 11:53:43;;;;;;;5.63;1.30;;;24.30;72.40;;;;;;5023116;28;20088;-71
2023/06/30 11:56:08;;;;;;;3.45;1.33;;;24.30;72.80;;;;;;5025150;28;20041;-72
2023/06/30 11:58:34;;;;;;;3.00;1.27;;;24.30;73.00;;;;;;5028693;28;20100;-72
2023/06/30 12:01:03;;;;;;;5.50;1.33;;;24.30;73.40;;;;;;5034572;28;20033;-71
2023/06/30 12:03:29;;;;;;;3.67;1.08;;;24.30;73.00;;;;;;5027953;28;20049;-71
2023/06/30 12:05:58;;;;;;;3.15;0.93;;;24.40;73.30;;;;;;5034682;28;20044;-72
2023/06/30 12:08:26;;;;;;;2.85;0.63;;;24.40;72.80;;;;;;5029535;28;20020;-73
2023/06/30 12:10:53;;;;;;;6.78;1.10;;;24.50;72.70;;;;;;5029571;28;20022;-72
2023/06/30 12:13:19;;;;;;;7.13;1.25;;;24.50;72.60;;;;;;5035317;28;20052;-71
2023/06/30 12:15:46;;;;;;;11.50;1.30;;;24.50;73.10;;;;;;5028050;28;20100;-67
2023/06/30 12:18:12;;;;;;;5.50;1.58;;;24.50;73.40;;;;;;5025397;28;20148;-66
2023/06/30 12:20:40;;;;;;;5.60;1.92;;;24.50;72.30;;;;;;5035677;28;20360;-67
2023/06/30 12:23:06;;;;;;;7.38;1.50;;;24.50;72.90;;;;;;5032995;28;20018;-66
2023/06/30 12:25:33;;;;;;;4.63;1.00;;;24.50;73.40;;;;;;5029371;28;20367;-67
2023/06/30 12:28:02;;;;;;;3.45;1.20;;;24.60;73.70;;;;;;5014302;28;20033;-68
2023/06/30 12:30:28;;;;;;;3.03;0.82;;;24.60;73.90;;;;;;5033284;28;20156;-68
2023/06/30 12:32:58;;;;;;;3.05;1.27;;;24.60;73.80;;;;;;5023459;28;20097;-68
2023/06/30 12:35:32;;;;;;;4.03;1.05;;;24.60;73.10;;;;;;5026398;28;20033;-67
2023/06/30 12:37:59;;;;;;;2.50;0.90;;;24.60;74.00;;;;;;5034790;28;20747;-66
2023/06/30 12:40:28;;;;;;;6.40;1.30;;;24.60;74.10;;;;;;5016520;28;20121;-67
2023/06/30 12:42:53;;;;;;;4.63;1.15;;;24.60;74.30;;;;;;5018804;28;20060;-67
2023/06/30 12:45:20;;;;;;;4.50;1.58;;;24.70;74.50;;;;;;5017525;28;20064;-70